sensor_id;sensor_type;location;lat;lon;timestamp;pressure;altitude;pressure_sealevel;temperature;humidity
46724;BME280;32463;48.298;11.620;2023-09-30T00:02:24;97055.84;;;15.57;100.00
46724;BME280;32463;48.298;11.620;2023-09-30T00:04:51;97056.13;;;15.54;100.00
46724;BME280;32463;48.298;11.620;2023-09-30T00:07:17;97050.88;;;15.62;100.00
46724;BME280;32463;48.298;11.620;2023-09-30T00:09:44;97062.25;;;15.77;100.00
46724;BME280;32463;48.298;11.620;2023-09-30T00:12:11;97066.44;;;15.86;100.00
46724;BME280;32463;48.298;11.620;2023-09-30T00:14:37;97068.34;;;15.92;100.00
46724;BME280;32463;48.298;11.620;2023-09-30T00:17:04;97051.94;;;15.75;100.00
46724;BME280;32463;48.298;11.620;2023-09-30T00:19:30;97058.69;;;15.70;100.00
46724;BME280;32463;48.298;11.620;2023-09-30T00:21:58;97067.19;;;15.64;100.00
46724;BME280;32463;48.298;11.620;2023-09-30T00:24:26;97073.38;;;15.71;100.00
46724;BME280;32463;48.298;11.620;2023-09-30T00:26:52;97072.97;;;15.59;100.00
46724;BME280;32463;48.298;11.620;2023-09-30T00:29:19;97064.97;;;15.53;100.00
46724;BME280;32463;48.298;11.620;2023-09-30T00:31:46;97064.22;;;15.36;100.00
46724;BME280;32463;48.298;11.620;2023-09-30T00:34:13;97076.63;;;15.34;100.00
46724;BME280;32463;48.298;11.620;2023-09-30T00:36:39;97075.34;;;15.30;100.00
46724;BME280;32463;48.298;11.620;2023-09-30T00:39:07;97078.81;;;15.22;100.00
46724;BME280;32463;48.298;11.620;2023-09-30T00:41:35;97083.56;;;15.19;100.00
46724;BME280;32463;48.298;11.620;2023-09-30T00:44:02;97077.56;;;15.10;100.00
46724;BME280;32463;48.298;11.620;2023-09-30T00:46:31;97079.50;;;15.16;100.00
46724;BME280;32463;48.298;11.620;2023-09-30T00:48:59;97078.19;;;15.12;100.00
46724;BME280;32463;48.298;11.620;2023-09-30T00:51:26;97082.13;;;15.08;100.00
46724;BME280;32463;48.298;11.620;2023-09-30T00:53:56;97080.66;;;15.05;100.00
46724;BME280;32463;48.298;11.620;2023-09-30T00:56:25;97078.88;;;15.06;100.00
46724;BME280;32463;48.298;11.620;2023-09-30T00:58:52;97083.75;;;15.09;100.00
46724;BME280;32463;48.298;11.620;2023-09-30T01:01:22;97095.81;;;15.18;100.00
46724;BME280;32463;48.298;11.620;2023-09-30T01:03:49;97090.56;;;15.26;100.00
46724;BME280;32463;48.298;11.620;2023-09-30T01:06:15;97094.06;;;15.41;100.00
46724;BME280;32463;48.298;11.620;2023-09-30T01:08:42;97106.16;;;15.42;100.00
46724;BME280;32463;48.298;11.620;2023-09-30T01:11:08;97101.91;;;15.41;100.00
46724;BME280;32463;48.298;11.620;2023-09-30T01:13:36;97092.13;;;15.43;100.00
46724;BME280;32463;48.298;11.620;2023-09-30T01:16:05;97091.47;;;15.41;100.00
46724;BME280;32463;48.298;11.620;2023-09-30T01:18:32;97095.38;;;15.45;100.00
46724;BME280;32463;48.298;11.620;2023-09-30T01:21:03;97091.63;;;15.40;100.00
46724;BME280;32463;48.298;11.620;2023-09-30T01:23:34;97090.47;;;15.42;100.00
46724;BME280;32463;48.298;11.620;2023-09-30T01:26:07;97099.97;;;15.35;100.00
46724;BME280;32463;48.298;11.620;2023-09-30T01:28:34;97102.66;;;15.27;100.00
46724;BME280;32463;48.298;11.620;2023-09-30T01:31:00;97109.84;;;15.25;100.00
46724;BME280;32463;48.298;11.620;2023-09-30T01:33:28;97100.19;;;15.26;100.00
46724;BME280;32463;48.298;11.620;2023-09-30T01:35:54;97103.47;;;15.28;100.00
46724;BME280;32463;48.298;11.620;2023-09-30T01:38:21;97099.06;;;15.28;100.00
46724;BME280;32463;48.298;11.620;2023-09-30T01:40:48;97099.91;;;15.12;100.00
46724;BME280;32463;48.298;11.620;2023-09-30T01:43:14;97096.47;;;15.12;100.00
46724;BME280;32463;48.298;11.620;2023-09-30T01:45:41;97090.16;;;15.45;100.00
46724;BME280;32463;48.298;11.620;2023-09-30T01:48:08;97090.75;;;15.56;100.00
46724;BME280;32463;48.298;11.620;2023-09-30T01:50:37;97081.84;;;15.42;100.00
46724;BME280;32463;48.298;11.620;2023-09-30T01:53:05;97085.34;;;15.26;100.00
46724;BME280;32463;48.298;11.620;2023-09-30T01:55:33;97097.00;;;15.46;100.00
46724;BME280;32463;48.298;11.620;2023-09-30T01:57:59;97096.34;;;15.44;100.00
46724;BME280;32463;48.298;11.620;2023-09-30T02:00:26;97098.41;;;15.18;100.00
46724;BME280;32463;48.298;11.620;2023-09-30T02:02:57;97099.09;;;15.04;100.00
46724;BME280;32463;48.298;11.620;2023-09-30T02:05:23;97096.19;;;14.99;100.00
46724;BME280;32463;48.298;11.620;2023-09-30T02:07:50;97102.44;;;14.81;100.00
46724;BME280;32463;48.298;11.620;2023-09-30T02:10:17;97097.88;;;14.75;100.00
46724;BME280;32463;48.298;11.620;2023-09-30T02:12:45;97101.47;;;14.74;100.00
46724;BME280;32463;48.298;11.620;2023-09-30T02:15:12;97107.00;;;14.79;100.00
46724;BME280;32463;48.298;11.620;2023-09-30T02:17:38;97108.63;;;14.80;100.00
46724;BME280;32463;48.298;11.620;2023-09-30T02:20:06;97108.63;;;14.89;100.00
46724;BME280;32463;48.298;11.620;2023-09-30T02:22:41;97110.09;;;14.83;100.00
46724;BME280;32463;48.298;11.620;2023-09-30T02:25:07;97107.31;;;14.85;100.00
46724;BME280;32463;48.298;11.620;2023-09-30T02:27:34;97110.91;;;14.83;100.00
46724;BME280;32463;48.298;11.620;2023-09-30T02:30:01;97115.81;;;14.78;100.00
46724;BME280;32463;48.298;11.620;2023-09-30T02:32:28;97102.59;;;14.72;100.00
46724;BME280;32463;48.298;11.620;2023-09-30T02:34:55;97102.63;;;14.64;100.00
46724;BME280;32463;48.298;11.620;2023-09-30T02:37:21;97100.84;;;14.64;100.00
46724;BME280;32463;48.298;11.620;2023-09-30T02:39:47;97111.94;;;14.58;100.00
46724;BME280;32463;48.298;11.620;2023-09-30T02:42:14;97110.28;;;14.57;100.00
46724;BME280;32463;48.298;11.620;2023-09-30T02:44:40;97111.59;;;14.53;100.00
46724;BME280;32463;48.298;11.620;2023-09-30T02:47:07;97105.72;;;14.51;100.00
46724;BME280;32463;48.298;11.620;2023-09-30T02:49:34;97109.31;;;14.50;100.00
46724;BME280;32463;48.298;11.620;2023-09-30T02:52:00;97105.41;;;14.54;100.00
46724;BME280;32463;48.298;11.620;2023-09-30T02:54:27;97104.38;;;14.79;100.00
46724;BME280;32463;48.298;11.620;2023-09-30T02:56:53;97101.16;;;14.61;100.00
46724;BME280;32463;48.298;11.620;2023-09-30T02:59:20;97099.53;;;14.60;100.00
46724;BME280;32463;48.298;11.620;2023-09-30T03:01:47;97099.53;;;14.52;100.00
46724;BME280;32463;48.298;11.620;2023-09-30T03:04:15;97102.47;;;14.65;100.00
46724;BME280;32463;48.298;11.620;2023-09-30T03:06:44;97099.22;;;14.63;100.00
46724;BME280;32463;48.298;11.620;2023-09-30T03:09:11;97103.28;;;14.66;100.00
46724;BME280;32463;48.298;11.620;2023-09-30T03:11:40;97104.38;;;14.79;100.00
46724;BME280;32463;48.298;11.620;2023-09-30T03:14:09;97100.97;;;14.79;100.00
46724;BME280;32463;48.298;11.620;2023-09-30T03:16:37;97098.53;;;14.77;100.00
46724;BME280;32463;48.298;11.620;2023-09-30T03:19:05;97095.09;;;14.77;100.00
46724;BME280;32463;48.298;11.620;2023-09-30T03:21:34;97096.22;;;14.74;100.00
46724;BME280;32463;48.298;11.620;2023-09-30T03:24:03;97096.22;;;14.74;100.00
46724;BME280;32463;48.298;11.620;2023-09-30T03:26:30;97103.41;;;14.72;100.00
46724;BME280;32463;48.298;11.620;2023-09-30T03:28:58;97095.56;;;14.80;100.00
46724;BME280;32463;48.298;11.620;2023-09-30T03:31:25;97097.22;;;14.81;100.00
46724;BME280;32463;48.298;11.620;2023-09-30T03:33:52;97101.13;;;14.77;100.00
46724;BME280;32463;48.298;11.620;2023-09-30T03:36:20;97092.97;;;14.72;100.00
46724;BME280;32463;48.298;11.620;2023-09-30T03:38:47;97102.75;;;14.78;100.00
46724;BME280;32463;48.298;11.620;2023-09-30T03:41:14;97109.75;;;14.94;100.00
46724;BME280;32463;48.298;11.620;2023-09-30T03:43:40;97105.31;;;15.03;100.00
46724;BME280;32463;48.298;11.620;2023-09-30T03:46:09;97109.22;;;14.99;100.00
46724;BME280;32463;48.298;11.620;2023-09-30T03:48:37;97111.03;;;14.98;100.00
46724;BME280;32463;48.298;11.620;2023-09-30T03:51:14;97110.19;;;15.06;100.00
46724;BME280;32463;48.298;11.620;2023-09-30T03:53:44;97112.81;;;15.06;100.00
46724;BME280;32463;48.298;11.620;2023-09-30T03:56:11;97120.31;;;15.09;100.00
46724;BME280;32463;48.298;11.620;2023-09-30T03:58:42;97120.63;;;15.22;100.00
46724;BME280;32463;48.298;11.620;2023-09-30T04:01:10;97125.22;;;15.12;100.00
46724;BME280;32463;48.298;11.620;2023-09-30T04:03:38;97127.16;;;15.10;100.00
46724;BME280;32463;48.298;11.620;2023-09-30T04:06:06;97128.81;;;15.11;100.00
46724;BME280;32463;48.298;11.620;2023-09-30T04:08:33;97130.94;;;15.07;100.00
46724;BME280;32463;48.298;11.620;2023-09-30T04:11:00;97132.22;;;15.11;100.00
46724;BME280;32463;48.298;11.620;2023-09-30T04:13:27;97129.28;;;15.14;100.00
46724;BME280;32463;48.298;11.620;2023-09-30T04:15:54;97131.41;;;15.19;100.00
46724;BME280;32463;48.298;11.620;2023-09-30T04:18:24;97126.66;;;15.14;100.00
46724;BME280;32463;48.298;11.620;2023-09-30T04:20:52;97121.94;;;15.10;100.00
46724;BME280;32463;48.298;11.620;2023-09-30T04:23:19;97119.81;;;15.05;100.00
46724;BME280;32463;48.298;11.620;2023-09-30T04:25:46;97120.97;;;15.03;100.00
46724;BME280;32463;48.298;11.620;2023-09-30T04:28:13;97126.91;;;14.89;100.00
46724;BME280;32463;48.298;11.620;2023-09-30T04:30:41;97126.75;;;14.82;100.00
46724;BME280;32463;48.298;11.620;2023-09-30T04:33:07;97141.75;;;14.80;100.00
46724;BME280;32463;48.298;11.620;2023-09-30T04:35:36;97132.44;;;14.77;100.00
46724;BME280;32463;48.298;11.620;2023-09-30T04:38:02;97132.78;;;14.74;100.00
46724;BME280;32463;48.298;11.620;2023-09-30T04:40:30;97123.16;;;14.75;100.00
46724;BME280;32463;48.298;11.620;2023-09-30T04:42:58;97122.66;;;14.71;100.00
46724;BME280;32463;48.298;11.620;2023-09-30T04:45:25;97119.06;;;14.72;100.00
46724;BME280;32463;48.298;11.620;2023-09-30T04:47:55;97127.41;;;14.52;100.00
46724;BME280;32463;48.298;11.620;2023-09-30T04:50:22;97126.22;;;14.38;100.00
46724;BME280;32463;48.298;11.620;2023-09-30T04:52:50;97124.78;;;14.35;100.00
46724;BME280;32463;48.298;11.620;2023-09-30T04:55:17;97124.13;;;14.33;100.00
46724;BME280;32463;48.298;11.620;2023-09-30T04:57:45;97123.63;;;14.22;100.00
46724;BME280;32463;48.298;11.620;2023-09-30T05:00:17;97124.44;;;14.14;100.00
46724;BME280;32463;48.298;11.620;2023-09-30T05:02:45;97126.69;;;14.09;100.00
46724;BME280;32463;48.298;11.620;2023-09-30T05:05:11;97136.97;;;14.02;100.00
46724;BME280;32463;48.298;11.620;2023-09-30T05:07:38;97139.28;;;14.05;100.00
46724;BME280;32463;48.298;11.620;2023-09-30T05:10:05;97137.13;;;14.09;100.00
46724;BME280;32463;48.298;11.620;2023-09-30T05:12:35;97138.59;;;14.03;100.00
46724;BME280;32463;48.298;11.620;2023-09-30T05:15:02;97136.34;;;14.25;100.00
46724;BME280;32463;48.298;11.620;2023-09-30T05:17:31;97143.84;;;14.20;100.00
46724;BME280;32463;48.298;11.620;2023-09-30T05:19:58;97150.81;;;14.11;100.00
46724;BME280;32463;48.298;11.620;2023-09-30T05:22:24;97152.25;;;13.89;100.00
46724;BME280;32463;48.298;11.620;2023-09-30T05:24:52;97146.84;;;13.74;100.00
46724;BME280;32463;48.298;11.620;2023-09-30T05:27:19;97148.94;;;13.71;100.00
46724;BME280;32463;48.298;11.620;2023-09-30T05:29:45;97156.09;;;13.69;100.00
46724;BME280;32463;48.298;11.620;2023-09-30T05:32:18;97160.34;;;13.78;100.00
46724;BME280;32463;48.298;11.620;2023-09-30T05:34:44;97166.56;;;13.85;100.00
46724;BME280;32463;48.298;11.620;2023-09-30T05:37:11;97164.31;;;13.90;100.00
46724;BME280;32463;48.298;11.620;2023-09-30T05:39:37;97163.84;;;13.95;100.00
46724;BME280;32463;48.298;11.620;2023-09-30T05:42:04;97166.94;;;13.98;100.00
46724;BME280;32463;48.298;11.620;2023-09-30T05:44:30;97182.28;;;14.01;100.00
46724;BME280;32463;48.298;11.620;2023-09-30T05:46:57;97180.31;;;14.03;100.00
46724;BME280;32463;48.298;11.620;2023-09-30T05:49:25;97170.88;;;14.10;100.00
46724;BME280;32463;48.298;11.620;2023-09-30T05:51:52;97174.13;;;14.12;100.00
46724;BME280;32463;48.298;11.620;2023-09-30T05:54:18;97178.03;;;14.08;100.00
46724;BME280;32463;48.298;11.620;2023-09-30T05:56:45;97181.97;;;14.04;100.00
46724;BME280;32463;48.298;11.620;2023-09-30T05:59:12;97172.50;;;14.03;100.00
46724;BME280;32463;48.298;11.620;2023-09-30T06:01:38;97174.94;;;14.05;100.00
46724;BME280;32463;48.298;11.620;2023-09-30T06:04:05;97174.13;;;14.12;100.00
46724;BME280;32463;48.298;11.620;2023-09-30T06:06:32;97180.34;;;14.20;100.00
46724;BME280;32463;48.298;11.620;2023-09-30T06:08:58;97187.56;;;14.34;100.00
46724;BME280;32463;48.298;11.620;2023-09-30T06:11:25;97188.84;;;14.38;100.00
46724;BME280;32463;48.298;11.620;2023-09-30T06:13:57;97191.50;;;14.46;100.00
46724;BME280;32463;48.298;11.620;2023-09-30T06:16:26;97184.00;;;14.51;100.00
46724;BME280;32463;48.298;11.620;2023-09-30T06:18:53;97185.66;;;14.60;100.00
46724;BME280;32463;48.298;11.620;2023-09-30T06:21:24;97191.19;;;14.65;100.00
46724;BME280;32463;48.298;11.620;2023-09-30T06:23:54;97192.84;;;14.66;100.00
46724;BME280;32463;48.298;11.620;2023-09-30T06:26:21;97194.78;;;14.64;100.00
46724;BME280;32463;48.298;11.620;2023-09-30T06:28:50;97194.13;;;14.70;100.00
46724;BME280;32463;48.298;11.620;2023-09-30T06:31:19;97206.19;;;14.71;100.00
46724;BME280;32463;48.298;11.620;2023-09-30T06:33:46;97209.47;;;14.81;100.00
46724;BME280;32463;48.298;11.620;2023-09-30T06:36:13;97220.56;;;14.83;100.00
46724;BME280;32463;48.298;11.620;2023-09-30T06:38:40;97228.41;;;14.92;100.00
46724;BME280;32463;48.298;11.620;2023-09-30T06:41:08;97218.59;;;14.94;100.00
46724;BME280;32463;48.298;11.620;2023-09-30T06:43:34;97218.09;;;15.06;100.00
46724;BME280;32463;48.298;11.620;2023-09-30T06:46:10;97216.94;;;15.17;100.00
46724;BME280;32463;48.298;11.620;2023-09-30T06:48:38;97216.59;;;15.28;100.00
46724;BME280;32463;48.298;11.620;2023-09-30T06:51:06;97216.91;;;15.33;100.00
46724;BME280;32463;48.298;11.620;2023-09-30T06:53:32;97226.69;;;15.47;100.00
46724;BME280;32463;48.298;11.620;2023-09-30T06:55:59;97233.19;;;15.60;100.00
46724;BME280;32463;48.298;11.620;2023-09-30T06:58:27;97219.13;;;15.61;100.00
46724;BME280;32463;48.298;11.620;2023-09-30T07:00:53;97223.50;;;15.76;100.00
46724;BME280;32463;48.298;11.620;2023-09-30T07:03:20;97218.00;;;16.02;100.00
46724;BME280;32463;48.298;11.620;2023-09-30T07:05:46;97234.94;;;15.83;100.00
46724;BME280;32463;48.298;11.620;2023-09-30T07:08:16;97237.09;;;16.11;100.00
46724;BME280;32463;48.298;11.620;2023-09-30T07:10:44;97235.31;;;16.11;100.00
46724;BME280;32463;48.298;11.620;2023-09-30T07:13:11;97233.63;;;16.19;100.00
46724;BME280;32463;48.298;11.620;2023-09-30T07:15:38;97240.38;;;16.13;100.00
46724;BME280;32463;48.298;11.620;2023-09-30T07:18:04;97243.72;;;16.22;100.00
46724;BME280;32463;48.298;11.620;2023-09-30T07:20:31;97245.81;;;16.34;100.00
46724;BME280;32463;48.298;11.620;2023-09-30T07:22:59;97255.75;;;16.39;100.00
46724;BME280;32463;48.298;11.620;2023-09-30T07:25:28;97262.97;;;16.37;100.00
46724;BME280;32463;48.298;11.620;2023-09-30T07:27:57;97265.03;;;16.80;100.00
46724;BME280;32463;48.298;11.620;2023-09-30T07:30:25;97266.28;;;16.84;100.00
46724;BME280;32463;48.298;11.620;2023-09-30T07:32:51;97263.16;;;17.12;100.00
46724;BME280;32463;48.298;11.620;2023-09-30T07:35:18;97272.91;;;17.18;100.00
46724;BME280;32463;48.298;11.620;2023-09-30T07:37:44;97267.25;;;17.29;100.00
46724;BME280;32463;48.298;11.620;2023-09-30T07:40:12;97265.00;;;17.56;100.00
46724;BME280;32463;48.298;11.620;2023-09-30T07:42:40;97266.59;;;17.27;100.00
46724;BME280;32463;48.298;11.620;2023-09-30T07:45:07;97269.50;;;17.32;100.00
46724;BME280;32463;48.298;11.620;2023-09-30T07:47:33;97266.16;;;17.01;100.00
46724;BME280;32463;48.298;11.620;2023-09-30T07:50:03;97270.22;;;17.26;100.00
46724;BME280;32463;48.298;11.620;2023-09-30T07:52:35;97273.69;;;17.41;100.00
46724;BME280;32463;48.298;11.620;2023-09-30T07:55:02;97275.56;;;17.47;100.00
46724;BME280;32463;48.298;11.620;2023-09-30T07:57:30;97275.03;;;17.37;100.00
46724;BME280;32463;48.298;11.620;2023-09-30T07:59:56;97271.50;;;17.30;100.00
46724;BME280;32463;48.298;11.620;2023-09-30T08:02:23;97273.69;;;17.41;100.00
46724;BME280;32463;48.298;11.620;2023-09-30T08:04:53;97270.78;;;17.51;100.00
46724;BME280;32463;48.298;11.620;2023-09-30T08:07:19;97279.53;;;17.81;100.00
46724;BME280;32463;48.298;11.620;2023-09-30T08:09:47;97273.81;;;18.07;100.00
46724;BME280;32463;48.298;11.620;2023-09-30T08:12:14;97273.59;;;18.38;100.00
46724;BME280;32463;48.298;11.620;2023-09-30T08:14:40;97275.47;;;18.44;100.00
46724;BME280;32463;48.298;11.620;2023-09-30T08:17:09;97268.75;;;18.56;100.00
46724;BME280;32463;48.298;11.620;2023-09-30T08:19:37;97267.13;;;18.55;100.00
46724;BME280;32463;48.298;11.620;2023-09-30T08:22:03;97269.34;;;18.37;100.00
46724;BME280;32463;48.298;11.620;2023-09-30T08:24:30;97268.53;;;18.72;100.00
46724;BME280;32463;48.298;11.620;2023-09-30T08:26:56;97281.25;;;18.54;100.00
46724;BME280;32463;48.298;11.620;2023-09-30T08:29:23;97289.84;;;18.12;100.00
46724;BME280;32463;48.298;11.620;2023-09-30T08:31:49;97271.97;;;18.37;100.00
46724;BME280;32463;48.298;11.620;2023-09-30T08:34:16;97266.06;;;18.64;100.00
46724;BME280;32463;48.298;11.620;2023-09-30T08:36:45;97279.63;;;18.53;100.00
46724;BME280;32463;48.298;11.620;2023-09-30T08:39:11;97291.25;;;19.01;100.00
46724;BME280;32463;48.298;11.620;2023-09-30T08:41:39;97286.53;;;18.90;100.00
46724;BME280;32463;48.298;11.620;2023-09-30T08:44:05;97289.81;;;18.99;100.00
46724;BME280;32463;48.298;11.620;2023-09-30T08:46:34;97292.06;;;19.02;100.00
46724;BME280;32463;48.298;11.620;2023-09-30T08:49:02;97296.38;;;19.52;100.00
46724;BME280;32463;48.298;11.620;2023-09-30T08:51:30;97304.09;;;19.54;98.91
46724;BME280;32463;48.298;11.620;2023-09-30T08:53:58;97297.66;;;19.97;96.86
46724;BME280;32463;48.298;11.620;2023-09-30T08:56:30;97297.63;;;20.25;94.53
46724;BME280;32463;48.298;11.620;2023-09-30T08:58:59;97305.56;;;19.97;94.67
46724;BME280;32463;48.298;11.620;2023-09-30T09:01:27;97299.25;;;19.36;98.83
46724;BME280;32463;48.298;11.620;2023-09-30T09:03:54;97289.03;;;19.47;97.81
46724;BME280;32463;48.298;11.620;2023-09-30T09:06:21;97288.31;;;19.54;97.33
46724;BME280;32463;48.298;11.620;2023-09-30T09:08:48;97293.97;;;19.57;98.59
46724;BME280;32463;48.298;11.620;2023-09-30T09:11:15;97294.66;;;20.00;93.43
46724;BME280;32463;48.298;11.620;2023-09-30T09:14:00;97288.28;;;20.16;91.16
46724;BME280;32463;48.298;11.620;2023-09-30T09:16:26;97289.22;;;20.43;88.43
46724;BME280;32463;48.298;11.620;2023-09-30T09:18:55;97285.84;;;20.14;87.74
46724;BME280;32463;48.298;11.620;2023-09-30T09:21:22;97279.88;;;19.99;89.53
46724;BME280;32463;48.298;11.620;2023-09-30T09:23:53;97278.47;;;20.38;87.66
46724;BME280;32463;48.298;11.620;2023-09-30T09:26:28;97279.59;;;20.76;85.52
46724;BME280;32463;48.298;11.620;2023-09-30T09:29:03;97283.63;;;20.66;84.42
46724;BME280;32463;48.298;11.620;2023-09-30T09:31:35;97287.81;;;20.47;86.38
46724;BME280;32463;48.298;11.620;2023-09-30T09:34:13;97292.94;;;20.68;85.41
46724;BME280;32463;48.298;11.620;2023-09-30T09:36:40;97298.56;;;20.45;85.42
46724;BME280;32463;48.298;11.620;2023-09-30T09:39:07;97285.69;;;20.77;84.65
46724;BME280;32463;48.298;11.620;2023-09-30T09:41:49;97278.75;;;20.69;83.79
46724;BME280;32463;48.298;11.620;2023-09-30T09:44:16;97276.53;;;20.66;81.00
46724;BME280;32463;48.298;11.620;2023-09-30T09:46:44;97265.19;;;20.72;81.70
46724;BME280;32463;48.298;11.620;2023-09-30T09:49:11;97267.84;;;20.85;80.06
46724;BME280;32463;48.298;11.620;2023-09-30T09:51:39;97272.38;;;21.31;78.01
46724;BME280;32463;48.298;11.620;2023-09-30T09:54:06;97261.41;;;21.28;77.42
46724;BME280;32463;48.298;11.620;2023-09-30T09:56:34;97270.31;;;21.46;75.31
46724;BME280;32463;48.298;11.620;2023-09-30T09:59:02;97273.53;;;21.75;74.26
46724;BME280;32463;48.298;11.620;2023-09-30T10:01:33;97267.38;;;22.07;71.94
46724;BME280;32463;48.298;11.620;2023-09-30T10:04:01;97258.50;;;21.89;71.98
46724;BME280;32463;48.298;11.620;2023-09-30T10:06:28;97256.88;;;22.01;71.07
46724;BME280;32463;48.298;11.620;2023-09-30T10:08:56;97248.09;;;22.58;69.65
46724;BME280;32463;48.298;11.620;2023-09-30T10:11:23;97247.03;;;22.97;66.07
46724;BME280;32463;48.298;11.620;2023-09-30T10:13:55;97248.97;;;22.83;66.68
46724;BME280;32463;48.298;11.620;2023-09-30T10:19:15;97251.25;;;23.05;63.65
46724;BME280;32463;48.298;11.620;2023-09-30T10:24:43;97259.41;;;24.14;59.52
46724;BME280;32463;48.298;11.620;2023-09-30T10:27:29;97245.56;;;23.76;59.48
46724;BME280;32463;48.298;11.620;2023-09-30T10:37:47;97240.13;;;24.26;56.87
46724;BME280;32463;48.298;11.620;2023-09-30T10:40:27;97234.41;;;24.29;57.98
46724;BME280;32463;48.298;11.620;2023-09-30T10:42:54;97238.78;;;24.95;56.92
46724;BME280;32463;48.298;11.620;2023-09-30T10:48:40;97237.06;;;25.65;55.31
46724;BME280;32463;48.298;11.620;2023-09-30T10:51:17;97233.31;;;26.30;52.11
46724;BME280;32463;48.298;11.620;2023-09-30T10:53:49;97232.97;;;26.66;50.34
46724;BME280;32463;48.298;11.620;2023-09-30T10:56:20;97241.34;;;26.87;49.69
46724;BME280;32463;48.298;11.620;2023-09-30T10:58:51;97240.25;;;26.99;47.47
46724;BME280;32463;48.298;11.620;2023-09-30T11:01:20;97223.81;;;27.19;46.49
46724;BME280;32463;48.298;11.620;2023-09-30T11:03:47;97226.84;;;27.28;46.13
46724;BME280;32463;48.298;11.620;2023-09-30T11:06:17;97222.19;;;27.18;46.79
46724;BME280;32463;48.298;11.620;2023-09-30T11:08:56;97233.59;;;24.58;50.60
46724;BME280;32463;48.298;11.620;2023-09-30T11:11:40;97241.03;;;24.49;52.35
46724;BME280;32463;48.298;11.620;2023-09-30T11:14:28;97236.97;;;23.80;54.44
46724;BME280;32463;48.298;11.620;2023-09-30T11:16:57;97229.94;;;25.01;52.66
46724;BME280;32463;48.298;11.620;2023-09-30T11:19:24;97230.69;;;25.90;50.68
46724;BME280;32463;48.298;11.620;2023-09-30T11:21:53;97229.53;;;27.28;47.42
46724;BME280;32463;48.298;11.620;2023-09-30T11:24:21;97223.78;;;27.69;43.90
46724;BME280;32463;48.298;11.620;2023-09-30T11:26:47;97221.69;;;27.21;44.94
46724;BME280;32463;48.298;11.620;2023-09-30T11:29:19;97223.50;;;26.42;45.22
46724;BME280;32463;48.298;11.620;2023-09-30T11:31:49;97225.72;;;25.58;46.79
46724;BME280;32463;48.298;11.620;2023-09-30T11:34:17;97226.75;;;24.50;49.21
46724;BME280;32463;48.298;11.620;2023-09-30T11:36:49;97235.19;;;24.89;49.85
46724;BME280;32463;48.298;11.620;2023-09-30T11:39:25;97219.63;;;26.21;46.43
46724;BME280;32463;48.298;11.620;2023-09-30T11:41:53;97231.53;;;27.37;45.55
46724;BME280;32463;48.298;11.620;2023-09-30T11:44:20;97230.34;;;28.22;41.94
46724;BME280;32463;48.298;11.620;2023-09-30T11:46:57;97222.03;;;29.63;39.42
46724;BME280;32463;48.298;11.620;2023-09-30T11:51:53;97218.41;;;29.85;37.41
46724;BME280;32463;48.298;11.620;2023-09-30T11:54:20;97224.09;;;28.60;38.73
46724;BME280;32463;48.298;11.620;2023-09-30T11:56:49;97214.69;;;27.15;41.33
46724;BME280;32463;48.298;11.620;2023-09-30T11:59:17;97204.19;;;27.08;42.08
46724;BME280;32463;48.298;11.620;2023-09-30T12:01:47;97212.81;;;26.99;41.91
46724;BME280;32463;48.298;11.620;2023-09-30T12:04:15;97201.03;;;26.49;42.29
46724;BME280;32463;48.298;11.620;2023-09-30T12:06:45;97192.00;;;25.12;45.84
46724;BME280;32463;48.298;11.620;2023-09-30T12:09:15;97196.56;;;23.85;49.66
46724;BME280;32463;48.298;11.620;2023-09-30T12:11:43;97188.09;;;26.13;46.05
46724;BME280;32463;48.298;11.620;2023-09-30T12:14:11;97177.91;;;26.50;43.46
46724;BME280;32463;48.298;11.620;2023-09-30T12:16:39;97178.72;;;27.68;40.23
46724;BME280;32463;48.298;11.620;2023-09-30T12:19:06;97179.63;;;29.35;39.06
46724;BME280;32463;48.298;11.620;2023-09-30T12:21:33;97178.34;;;30.77;36.17
46724;BME280;32463;48.298;11.620;2023-09-30T12:24:01;97175.63;;;31.48;33.88
46724;BME280;32463;48.298;11.620;2023-09-30T12:26:29;97169.97;;;31.50;34.09
46724;BME280;32463;48.298;11.620;2023-09-30T12:28:59;97170.28;;;31.43;33.06
46724;BME280;32463;48.298;11.620;2023-09-30T12:31:25;97172.03;;;28.85;36.98
46724;BME280;32463;48.298;11.620;2023-09-30T12:33:52;97181.34;;;29.14;37.62
46724;BME280;32463;48.298;11.620;2023-09-30T12:36:19;97170.91;;;28.80;38.37
46724;BME280;32463;48.298;11.620;2023-09-30T12:38:47;97165.94;;;30.36;35.74
46724;BME280;32463;48.298;11.620;2023-09-30T12:41:14;97159.75;;;31.62;33.13
46724;BME280;32463;48.298;11.620;2023-09-30T12:43:40;97167.88;;;31.06;34.17
46724;BME280;32463;48.298;11.620;2023-09-30T12:46:08;97172.22;;;28.51;36.40
46724;BME280;32463;48.298;11.620;2023-09-30T12:48:35;97167.66;;;27.21;38.94
46724;BME280;32463;48.298;11.620;2023-09-30T12:51:03;97168.00;;;26.05;40.74
46724;BME280;32463;48.298;11.620;2023-09-30T12:53:32;97170.91;;;25.29;43.19
46724;BME280;32463;48.298;11.620;2023-09-30T12:55:59;97187.63;;;25.06;44.19
46724;BME280;32463;48.298;11.620;2023-09-30T12:58:26;97195.09;;;24.56;45.74
46724;BME280;32463;48.298;11.620;2023-09-30T13:00:55;97194.34;;;24.37;45.74
46724;BME280;32463;48.298;11.620;2023-09-30T13:03:23;97197.31;;;23.92;47.42
46724;BME280;32463;48.298;11.620;2023-09-30T13:05:50;97192.69;;;23.69;48.36
46724;BME280;32463;48.298;11.620;2023-09-30T13:08:16;97188.06;;;23.83;47.51